Time;durP1;ratioP1;P1;durP2;ratioP2;P2;SDS_P1;SDS_P2;PMS_P1;PMS_P2;Temp;Humidity;BMP_temperature;BMP_pressure;BME280_temperature;BME280_humidity;BME280_pressure;Samples;Min_cycle;Max_cycle;Signal;HPM_P1;HPM_P2
2023/03/25 00:00:25;;;;;;;7.30;1.20;;;10.20;99.90;;;;;;5102212;23;20606;-95
2023/03/25 00:02:28;;;;;;;5.07;0.85;;;10.10;99.90;;;;;;5118414;23;20156;-92
2023/03/25 00:04:29;;;;;;;6.38;0.98;;;10.20;99.90;;;;;;5118487;23;20151;-93
2023/03/25 00:06:33;;;;;;;8.07;1.20;;;10.20;99.90;;;;;;5118109;23;20861;-93
2023/03/25 00:08:34;;;;;;;4.63;1.00;;;10.10;99.90;;;;;;5118239;23;20164;-94
2023/03/25 00:10:35;;;;;;;2.83;0.90;;;10.20;99.90;;;;;;5142645;23;20175;-93
2023/03/25 00:12:36;;;;;;;5.25;1.17;;;10.00;99.90;;;;;;5117851;23;20235;-93
2023/03/25 00:14:38;;;;;;;5.47;0.85;;;10.10;99.90;;;;;;5143047;23;20183;-94
2023/03/25 00:16:39;;;;;;;5.45;0.88;;;10.20;99.90;;;;;;5117947;23;20156;-93
2023/03/25 00:18:40;;;;;;;3.95;1.27;;;10.20;99.90;;;;;;5142897;23;20178;-93
2023/03/25 00:20:40;;;;;;;5.90;1.02;;;10.10;99.90;;;;;;5118100;23;20231;-92
2023/03/25 00:22:42;;;;;;;9.15;1.13;;;10.10;99.90;;;;;;5142843;23;20151;-94
2023/03/25 00:24:43;;;;;;;9.63;1.63;;;10.00;99.90;;;;;;5118272;23;20152;-92
2023/03/25 00:26:47;;;;;;;3.33;0.93;;;9.90;99.90;;;;;;5118388;23;20546;-93
2023/03/25 00:28:48;;;;;;;3.50;0.90;;;10.00;99.90;;;;;;5142982;23;20197;-92
2023/03/25 00:30:50;;;;;;;9.55;1.33;;;10.10;99.90;;;;;;5142838;23;20171;-93
2023/03/25 00:32:51;;;;;;;7.07;0.93;;;10.00;99.90;;;;;;5118139;23;20179;-92
2023/03/25 00:34:52;;;;;;;8.60;1.33;;;10.10;99.90;;;;;;5118154;23;20144;-93
2023/03/25 00:36:53;;;;;;;5.07;1.05;;;10.10;99.90;;;;;;5118331;23;20156;-92
2023/03/25 00:38:54;;;;;;;8.82;1.08;;;10.00;99.90;;;;;;5119472;23;20156;-93
2023/03/25 00:40:54;;;;;;;4.03;0.90;;;10.00;99.90;;;;;;5119204;23;20168;-92
2023/03/25 00:42:56;;;;;;;7.55;0.90;;;10.10;99.90;;;;;;5119532;23;20498;-92
2023/03/25 00:44:57;;;;;;;8.55;1.05;;;10.10;99.90;;;;;;5144676;23;20157;-92
2023/03/25 00:46:57;;;;;;;3.80;1.00;;;10.10;99.90;;;;;;5119719;23;20156;-93
2023/03/25 00:48:59;;;;;;;6.83;1.07;;;10.00;99.90;;;;;;5119546;23;20192;-93
2023/03/25 00:51:06;;;;;;;8.27;1.27;;;10.20;99.90;;;;;;5144192;23;20199;-93
2023/03/25 00:53:07;;;;;;;6.82;1.30;;;10.20;99.90;;;;;;5144585;23;20216;-92
2023/03/25 00:55:08;;;;;;;8.55;1.27;;;10.10;99.90;;;;;;5119377;23;20223;-91
2023/03/25 00:57:09;;;;;;;4.75;0.95;;;10.10;99.90;;;;;;5144440;23;20629;-92
2023/03/25 00:59:10;;;;;;;6.65;1.05;;;10.10;99.90;;;;;;5144347;23;20155;-93
2023/03/25 01:01:16;;;;;;;5.15;0.98;;;10.00;99.90;;;;;;5144311;23;20171;-93
2023/03/25 01:03:17;;;;;;;3.50;0.75;;;10.10;99.90;;;;;;5144604;23;20529;-93
2023/03/25 01:05:20;;;;;;;6.95;1.15;;;10.00;99.90;;;;;;5119322;23;20157;-93
2023/03/25 01:07:20;;;;;;;6.82;1.10;;;10.10;99.90;;;;;;5119567;23;20151;-92
2023/03/25 01:09:21;;;;;;;8.77;1.35;;;10.00;99.90;;;;;;5143696;23;20262;-93
2023/03/25 01:11:25;;;;;;;7.15;1.35;;;10.00;99.90;;;;;;5119526;23;20186;-92
2023/03/25 01:13:26;;;;;;;7.88;1.27;;;10.00;99.90;;;;;;5119516;23;20155;-93
2023/03/25 01:15:27;;;;;;;8.23;1.83;;;9.90;99.90;;;;;;5119672;23;20183;-93
2023/03/25 01:17:28;;;;;;;8.73;1.17;;;9.80;99.90;;;;;;5144495;23;20163;-94
2023/03/25 01:19:30;;;;;;;6.70;1.38;;;9.80;99.90;;;;;;5119234;23;20172;-92
2023/03/25 01:21:35;;;;;;;6.32;1.42;;;9.70;99.90;;;;;;5119766;23;20255;-93
2023/03/25 01:23:36;;;;;;;5.70;1.20;;;9.60;99.90;;;;;;5144461;23;20171;-93
2023/03/25 01:25:37;;;;;;;7.25;1.08;;;9.70;99.90;;;;;;5119999;23;20148;-93
2023/03/25 01:27:37;;;;;;;10.65;1.50;;;9.60;99.90;;;;;;5122697;23;20198;-92
2023/03/25 01:29:38;;;;;;;7.05;1.20;;;9.70;99.90;;;;;;5119223;23;20196;-93
2023/03/25 01:31:39;;;;;;;5.70;1.30;;;9.90;99.90;;;;;;5143900;23;20166;-93
2023/03/25 01:33:40;;;;;;;13.07;1.20;;;9.90;99.90;;;;;;5119584;23;20160;-93
2023/03/25 01:35:41;;;;;;;8.25;1.70;;;10.00;99.90;;;;;;5144055;23;20191;-92
2023/03/25 01:37:43;;;;;;;8.43;1.58;;;10.00;99.90;;;;;;5119138;23;20161;-92
2023/03/25 01:39:44;;;;;;;9.20;1.45;;;9.90;99.90;;;;;;5118993;23;20165;-92
2023/03/25 01:41:47;;;;;;;5.47;1.15;;;9.90;99.90;;;;;;5144065;23;20158;-92
2023/03/25 01:44:28;;;;;;;12.75;1.58;;;9.80;99.90;;;;;;5119051;23;20207;-93
2023/03/25 01:46:28;;;;;;;11.23;1.42;;;9.70;99.90;;;;;;5143432;23;20708;-92
2023/03/25 01:48:39;;;;;;;15.20;1.20;;;9.70;99.90;;;;;;5118596;23;20235;-91
2023/03/25 01:50:44;;;;;;;12.03;1.73;;;9.80;99.90;;;;;;5118908;23;20187;-91
2023/03/25 01:52:49;;;;;;;6.10;1.17;;;9.70;99.90;;;;;;5144052;23;20190;-93
2023/03/25 01:54:53;;;;;;;10.60;1.13;;;9.70;99.90;;;;;;5118686;23;20638;-93
2023/03/25 01:56:54;;;;;;;8.07;1.37;;;9.80;99.90;;;;;;5119133;23;20168;-93
2023/03/25 01:58:58;;;;;;;6.90;1.20;;;9.60;99.90;;;;;;5119132;23;20228;-92
2023/03/25 02:01:00;;;;;;;11.65;1.58;;;9.70;99.90;;;;;;5118790;23;20222;-93
2023/03/25 02:03:01;;;;;;;10.87;1.47;;;9.70;99.90;;;;;;5143724;23;20213;-93
2023/03/25 02:05:09;;;;;;;9.97;1.13;;;9.60;99.90;;;;;;5143638;23;20148;-93
2023/03/25 02:07:15;;;;;;;7.50;1.02;;;9.60;99.90;;;;;;5119072;23;20187;-92
2023/03/25 02:09:20;;;;;;;10.25;1.63;;;9.70;99.90;;;;;;5119214;23;20250;-93
2023/03/25 02:11:21;;;;;;;17.13;1.50;;;9.80;99.90;;;;;;5118585;23;20538;-91
2023/03/25 02:13:22;;;;;;;6.90;1.20;;;9.60;99.90;;;;;;5118914;23;20156;-91
2023/03/25 02:15:22;;;;;;;10.38;1.40;;;9.60;99.90;;;;;;5143631;23;20147;-92
2023/03/25 02:17:49;;;;;;;8.25;1.15;;;9.70;99.90;;;;;;5118643;23;20156;-92
2023/03/25 02:20:28;;;;;;;7.83;1.30;;;9.70;99.90;;;;;;5118617;23;20184;-92
2023/03/25 02:22:40;;;;;;;7.90;1.10;;;9.70;99.90;;;;;;5098085;23;20154;-92
2023/03/25 02:25:05;;;;;;;8.07;1.20;;;9.70;99.90;;;;;;5118772;23;20234;-92
2023/03/25 02:27:44;;;;;;;8.70;1.30;;;9.60;99.90;;;;;;5119033;23;20511;-91
2023/03/25 02:30:23;;;;;;;6.97;1.23;;;9.50;99.90;;;;;;5118939;23;20199;-93
2023/03/25 02:32:42;;;;;;;8.20;1.00;;;9.60;99.90;;;;;;5143889;23;20151;-92
2023/03/25 02:35:22;;;;;;;6.78;1.20;;;9.60;99.90;;;;;;5118749;23;20561;-92
2023/03/25 02:37:48;;;;;;;8.83;1.87;;;9.50;99.90;;;;;;5143759;23;20153;-91
2023/03/25 02:40:10;;;;;;;11.35;1.40;;;9.50;99.90;;;;;;5119579;23;20255;-92
2023/03/25 02:42:24;;;;;;;5.50;1.10;;;9.50;99.90;;;;;;5118750;23;20152;-92
2023/03/25 02:44:36;;;;;;;9.83;1.40;;;9.50;99.90;;;;;;5118677;23;20190;-93
2023/03/25 02:46:43;;;;;;;8.27;1.33;;;9.60;99.90;;;;;;5118677;23;20152;-92
2023/03/25 02:48:55;;;;;;;9.00;1.40;;;9.40;99.90;;;;;;5118618;23;20176;-93
2023/03/25 02:50:57;;;;;;;9.63;1.50;;;9.50;99.90;;;;;;5118476;23;20168;-94
2023/03/25 02:53:01;;;;;;;5.82;1.20;;;9.50;99.90;;;;;;5143396;23;20179;-92
2023/03/25 02:55:04;;;;;;;9.80;2.37;;;9.40;99.90;;;;;;5118599;23;20211;-92
2023/03/25 02:57:07;;;;;;;8.57;1.43;;;9.50;99.90;;;;;;5118876;23;20175;-93
2023/03/25 02:59:13;;;;;;;6.20;1.00;;;9.40;99.90;;;;;;5118602;23;20148;-93
2023/03/25 03:01:13;;;;;;;10.97;1.47;;;9.20;99.90;;;;;;5118504;23;20225;-93
2023/03/25 03:03:15;;;;;;;9.73;1.33;;;9.30;99.90;;;;;;5118629;23;20480;-94
2023/03/25 03:05:30;;;;;;;9.70;1.30;;;9.30;99.90;;;;;;5118341;23;20218;-93
2023/03/25 03:07:38;;;;;;;7.50;1.20;;;9.30;99.90;;;;;;5118778;23;20160;-92
2023/03/25 03:09:48;;;;;;;12.97;1.40;;;9.30;99.90;;;;;;5118346;23;20198;-94
2023/03/25 03:12:11;;;;;;;16.47;2.10;;;9.30;99.90;;;;;;5118390;23;20148;-93
2023/03/25 03:14:40;;;;;;;9.77;1.47;;;9.40;99.90;;;;;;5118370;23;20176;-94
2023/03/25 03:16:57;;;;;;;11.63;1.73;;;9.40;99.90;;;;;;5118555;23;20234;-94
2023/03/25 03:19:20;;;;;;;11.73;2.13;;;9.50;99.90;;;;;;5118429;23;20159;-93
2023/03/25 03:21:45;;;;;;;11.47;1.43;;;9.40;99.90;;;;;;5118207;23;20163;-92
2023/03/25 03:24:03;;;;;;;12.63;1.52;;;9.40;99.90;;;;;;5118214;23;20148;-93
2023/03/25 03:26:25;;;;;;;14.10;1.87;;;9.30;99.90;;;;;;5118160;23;20160;-92
2023/03/25 03:28:33;;;;;;;14.90;1.30;;;9.30;99.90;;;;;;5118234;23;20149;-93
2023/03/25 03:31:05;;;;;;;9.77;1.47;;;9.40;99.90;;;;;;5118241;23;20626;-92
2023/03/25 03:33:24;;;;;;;9.20;1.60;;;9.50;99.90;;;;;;5118355;23;20156;-92
2023/03/25 03:35:32;;;;;;;13.02;1.55;;;9.60;99.90;;;;;;5118189;23;20144;-93
2023/03/25 03:37:40;;;;;;;14.30;2.10;;;9.50;99.90;;;;;;5118537;23;20148;-93
2023/03/25 03:39:43;;;;;;;9.13;1.83;;;9.40;99.90;;;;;;5117824;23;20174;-93
2023/03/25 03:41:49;;;;;;;22.08;2.33;;;9.40;99.90;;;;;;5143142;23;20151;-94
2023/03/25 03:43:56;;;;;;;13.75;1.67;;;9.50;99.90;;;;;;5118733;23;20148;-92
2023/03/25 03:46:06;;;;;;;14.87;1.87;;;9.40;99.90;;;;;;5119438;23;20548;-93
2023/03/25 03:48:14;;;;;;;11.90;2.00;;;9.20;99.90;;;;;;5119476;23;20156;-92
2023/03/25 03:50:45;;;;;;;13.67;2.03;;;9.30;99.90;;;;;;5118180;23;20233;-93
2023/03/25 03:53:15;;;;;;;13.37;1.63;;;9.50;99.90;;;;;;5116264;23;20148;-93
2023/03/25 03:55:22;;;;;;;10.80;1.80;;;9.20;99.90;;;;;;5141070;23;20155;-94
2023/03/25 03:57:31;;;;;;;11.53;1.60;;;9.40;99.90;;;;;;5118363;23;20152;-93
2023/03/25 03:59:56;;;;;;;9.30;1.73;;;9.30;99.90;;;;;;5118366;23;20179;-93
2023/03/25 04:02:00;;;;;;;12.60;1.50;;;9.10;99.90;;;;;;5118109;23;20167;-93
2023/03/25 04:04:06;;;;;;;16.43;1.50;;;9.10;99.90;;;;;;5117982;23;20235;-93
2023/03/25 04:06:13;;;;;;;12.17;1.57;;;9.30;99.90;;;;;;5117967;23;20171;-92
2023/03/25 04:08:37;;;;;;;11.30;1.20;;;9.30;99.90;;;;;;5117827;23;20243;-92
2023/03/25 04:10:51;;;;;;;10.73;1.50;;;9.40;99.90;;;;;;5117724;23;20307;-93
2023/03/25 04:12:54;;;;;;;13.77;1.48;;;9.20;99.90;;;;;;5118303;23;20226;-93
2023/03/25 04:14:59;;;;;;;16.33;1.83;;;9.20;99.90;;;;;;5118001;23;20152;-93
2023/03/25 04:16:59;;;;;;;12.23;1.67;;;9.20;99.90;;;;;;5142529;23;20187;-93
2023/03/25 04:19:02;;;;;;;14.87;1.87;;;9.10;99.90;;;;;;5142598;23;20151;-93
2023/03/25 04:21:03;;;;;;;16.33;1.73;;;9.10;99.90;;;;;;5117724;23;20169;-92
2023/03/25 04:23:04;;;;;;;13.43;1.90;;;9.10;99.90;;;;;;5118124;23;20152;-93
2023/03/25 04:25:06;;;;;;;13.93;1.67;;;9.10;99.90;;;;;;5142713;23;20620;-92
2023/03/25 04:27:12;;;;;;;15.43;2.00;;;9.20;99.90;;;;;;5117975;23;20152;-93
2023/03/25 04:29:13;;;;;;;10.63;1.47;;;9.20;99.90;;;;;;5117885;23;20186;-93
2023/03/25 04:31:15;;;;;;;16.70;1.90;;;9.20;99.90;;;;;;5117601;23;20176;-92
2023/03/25 04:33:16;;;;;;;14.23;2.00;;;9.00;99.90;;;;;;5142714;23;20148;-92
2023/03/25 04:35:18;;;;;;;13.23;1.88;;;9.10;99.90;;;;;;5117908;23;20156;-92
2023/03/25 04:37:18;;;;;;;14.53;1.60;;;9.10;99.90;;;;;;5142750;23;20209;-92
2023/03/25 04:39:22;;;;;;;15.17;2.00;;;9.10;99.90;;;;;;5142629;23;20385;-92
2023/03/25 04:41:23;;;;;;;12.00;2.10;;;9.20;99.90;;;;;;5142734;23;20690;-93
2023/03/25 04:43:24;;;;;;;19.85;2.00;;;9.20;99.90;;;;;;5142755;23;20152;-93
2023/03/25 04:45:27;;;;;;;12.03;1.90;;;9.20;99.90;;;;;;5142548;23;20239;-92
2023/03/25 04:47:28;;;;;;;11.80;1.70;;;9.20;99.90;;;;;;5142861;23;20207;-92
2023/03/25 04:49:29;;;;;;;13.03;1.50;;;9.30;99.90;;;;;;5142626;23;20191;-93
2023/03/25 04:51:29;;;;;;;17.08;2.20;;;9.30;99.90;;;;;;5117712;23;20153;-94
2023/03/25 04:53:30;;;;;;;9.70;1.50;;;9.30;99.90;;;;;;5117682;23;20168;-93
2023/03/25 04:55:33;;;;;;;11.13;1.70;;;9.40;99.90;;;;;;5167634;23;20151;-93
2023/03/25 04:57:34;;;;;;;14.57;1.90;;;9.40;99.90;;;;;;5142650;23;20290;-95
2023/03/25 04:59:35;;;;;;;12.17;1.57;;;9.30;99.90;;;;;;5142573;23;20168;-94
2023/03/25 05:01:44;;;;;;;8.50;1.47;;;9.40;99.90;;;;;;5142408;23;20167;-93
2023/03/25 05:03:49;;;;;;;11.67;2.27;;;9.30;99.90;;;;;;5117620;23;20156;-92
2023/03/25 05:05:50;;;;;;;8.67;1.77;;;9.30;99.90;;;;;;5117853;23;20577;-93
2023/03/25 05:07:53;;;;;;;9.57;2.10;;;9.30;99.90;;;;;;5117955;23;20159;-92
2023/03/25 05:09:55;;;;;;;12.17;1.73;;;9.20;99.90;;;;;;5142722;23;20187;-92
2023/03/25 05:11:56;;;;;;;8.60;1.33;;;9.20;99.90;;;;;;5142893;23;20155;-94
2023/03/25 05:13:57;;;;;;;10.85;1.40;;;9.20;99.90;;;;;;5117954;23;20179;-92
2023/03/25 05:15:58;;;;;;;9.70;1.50;;;9.20;99.90;;;;;;5118094;23;20175;-93
2023/03/25 05:17:59;;;;;;;14.10;2.10;;;9.20;99.90;;;;;;5118009;23;20152;-93
2023/03/25 05:19:59;;;;;;;18.48;1.75;;;9.50;99.90;;;;;;5142771;23;20168;-93
2023/03/25 05:22:03;;;;;;;10.90;1.23;;;9.60;99.90;;;;;;5117911;23;20152;-92
2023/03/25 05:24:07;;;;;;;10.57;1.90;;;9.40;99.90;;;;;;5119055;23;20149;-93
2023/03/25 05:26:08;;;;;;;12.70;1.87;;;9.20;99.90;;;;;;5119032;23;20681;-93
2023/03/25 05:28:12;;;;;;;13.77;1.77;;;9.40;99.90;;;;;;5119363;23;20156;-93
2023/03/25 05:30:14;;;;;;;10.83;1.60;;;9.50;99.90;;;;;;5119245;23;20231;-94
2023/03/25 05:32:18;;;;;;;12.47;1.83;;;9.60;99.90;;;;;;5119339;23;20595;-93
2023/03/25 05:34:19;;;;;;;11.47;1.90;;;9.50;99.90;;;;;;5119225;23;20160;-93
2023/03/25 05:36:20;;;;;;;14.20;2.10;;;9.40;99.90;;;;;;5144247;23;20147;-94
2023/03/25 05:38:21;;;;;;;12.73;1.95;;;9.50;99.90;;;;;;5119369;23;20195;-94
2023/03/25 05:40:22;;;;;;;13.47;1.73;;;9.50;99.90;;;;;;5119047;23;20219;-93
2023/03/25 05:42:23;;;;;;;12.63;1.77;;;9.60;99.90;;;;;;5119268;23;20148;-93
2023/03/25 05:44:25;;;;;;;10.95;1.40;;;9.60;99.90;;;;;;5144152;23;20148;-93
2023/03/25 05:46:29;;;;;;;13.57;2.13;;;9.50;99.90;;;;;;5119304;23;20616;-93
2023/03/25 05:48:31;;;;;;;13.48;1.90;;;9.50;99.90;;;;;;5118640;23;20152;-94
2023/03/25 05:50:32;;;;;;;10.93;1.77;;;9.50;99.90;;;;;;5118805;23;20634;-93
2023/03/25 05:52:35;;;;;;;8.43;1.87;;;9.40;99.90;;;;;;5119301;23;20152;-93
2023/03/25 05:54:40;;;;;;;13.43;2.20;;;9.30;99.90;;;;;;5119026;23;20153;-93
2023/03/25 05:56:41;;;;;;;16.27;2.40;;;9.40;99.90;;;;;;5118943;23;20152;-92
2023/03/25 05:58:42;;;;;;;12.23;2.38;;;9.40;99.90;;;;;;5118857;23;20175;-92
2023/03/25 06:00:45;;;;;;;15.48;1.70;;;9.30;99.90;;;;;;5143611;23;20183;-92
2023/03/25 06:02:47;;;;;;;16.13;2.30;;;9.30;99.90;;;;;;5119180;23;20160;-93
2023/03/25 06:04:50;;;;;;;13.88;2.03;;;9.30;99.90;;;;;;5145666;23;20160;-92
2023/03/25 06:06:50;;;;;;;13.77;2.57;;;9.40;99.90;;;;;;5144588;23;20218;-91
2023/03/25 06:08:51;;;;;;;13.10;2.10;;;9.30;99.90;;;;;;5119091;23;20654;-91
2023/03/25 06:10:57;;;;;;;14.37;1.50;;;9.40;99.90;;;;;;5118720;23;20610;-92
2023/03/25 06:12:57;;;;;;;14.40;2.13;;;9.30;99.90;;;;;;5118889;23;20154;-92
2023/03/25 06:14:58;;;;;;;18.20;2.47;;;9.30;99.90;;;;;;5118891;23;20148;-91
2023/03/25 06:16:59;;;;;;;10.20;1.67;;;9.40;99.90;;;;;;5143664;23;20155;-92
2023/03/25 06:19:00;;;;;;;15.07;2.30;;;9.30;99.90;;;;;;5118901;23;20152;-92
2023/03/25 06:21:02;;;;;;;14.87;2.17;;;9.40;99.90;;;;;;5143639;23;20254;-92
2023/03/25 06:23:02;;;;;;;14.10;1.90;;;9.40;99.90;;;;;;5120334;23;20235;-91
2023/03/25 06:25:03;;;;;;;9.60;1.65;;;9.50;99.90;;;;;;5144047;23;20205;-90
2023/03/25 06:27:12;;;;;;;13.73;1.80;;;9.60;99.90;;;;;;5143832;23;20187;-92
2023/03/25 06:29:12;;;;;;;22.30;2.40;;;9.70;99.90;;;;;;5143532;23;20209;-91
2023/03/25 06:31:19;;;;;;;15.65;1.88;;;9.70;99.90;;;;;;5119243;23;20180;-91
2023/03/25 06:33:20;;;;;;;18.87;2.23;;;9.70;99.90;;;;;;5144072;23;20144;-91
2023/03/25 06:35:21;;;;;;;10.63;1.63;;;9.70;99.90;;;;;;5143655;23;20160;-91
2023/03/25 06:37:25;;;;;;;16.10;1.73;;;9.60;99.90;;;;;;5118755;23;20506;-91
2023/03/25 06:39:30;;;;;;;17.15;1.85;;;9.60;99.90;;;;;;5118714;23;20547;-92
2023/03/25 06:41:34;;;;;;;15.13;2.17;;;9.80;99.90;;;;;;5119327;23;20595;-91
2023/03/25 06:43:47;;;;;;;16.97;2.03;;;9.80;99.90;;;;;;5145753;23;20151;-91
2023/03/25 06:46:08;;;;;;;12.45;1.65;;;9.80;99.90;;;;;;5099156;23;20158;-92
2023/03/25 06:48:27;;;;;;;21.85;2.15;;;10.10;99.90;;;;;;5144133;23;20526;-92
2023/03/25 06:50:28;;;;;;;15.85;1.88;;;10.40;99.90;;;;;;5118250;23;20196;-91
2023/03/25 06:52:29;;;;;;;17.02;1.95;;;10.50;99.90;;;;;;5118395;23;20231;-91
2023/03/25 06:54:29;;;;;;;16.23;2.20;;;10.50;99.90;;;;;;5142977;23;20167;-92
2023/03/25 06:56:30;;;;;;;16.87;2.10;;;10.30;99.90;;;;;;5144741;23;20148;-92
2023/03/25 06:58:33;;;;;;;17.63;4.78;;;10.20;99.90;;;;;;5118471;23;20211;-93
2023/03/25 07:00:34;;;;;;;20.35;4.20;;;10.10;99.90;;;;;;5118302;23;20669;-91
2023/03/25 07:02:35;;;;;;;17.25;2.08;;;10.10;99.90;;;;;;5118559;23;20240;-92
2023/03/25 07:04:35;;;;;;;18.30;2.03;;;10.30;99.90;;;;;;5118677;23;20156;-91
2023/03/25 07:06:36;;;;;;;19.55;2.00;;;10.40;99.90;;;;;;5118633;23;20164;-92
2023/03/25 07:08:37;;;;;;;18.50;2.08;;;10.40;99.90;;;;;;5144971;23;20190;-93
2023/03/25 07:10:38;;;;;;;13.23;2.08;;;10.40;99.90;;;;;;5143111;23;20197;-91
2023/03/25 07:12:39;;;;;;;16.25;2.42;;;10.50;99.90;;;;;;5119144;23;20148;-92
2023/03/25 07:14:40;;;;;;;16.52;1.77;;;10.50;99.90;;;;;;5143094;23;20152;-92
2023/03/25 07:16:40;;;;;;;14.32;1.98;;;10.60;99.90;;;;;;5118274;23;20239;-92
2023/03/25 07:18:41;;;;;;;13.45;1.83;;;10.60;99.90;;;;;;5118328;23;20518;-92
2023/03/25 07:20:42;;;;;;;26.52;2.58;;;10.80;99.90;;;;;;5118120;23;20176;-92
2023/03/25 07:22:43;;;;;;;16.95;2.35;;;11.00;99.90;;;;;;5143061;23;20152;-92
2023/03/25 07:24:44;;;;;;;26.65;2.75;;;11.40;99.90;;;;;;5118080;23;20599;-91
2023/03/25 07:26:44;;;;;;;20.70;2.47;;;11.50;99.90;;;;;;5142823;23;20144;-92
2023/03/25 07:28:47;;;;;;;13.25;2.03;;;11.40;99.90;;;;;;5118287;23;20167;-92
2023/03/25 07:30:48;;;;;;;19.77;2.30;;;11.20;99.90;;;;;;5118188;23;20528;-92
2023/03/25 07:32:49;;;;;;;23.83;4.28;;;11.20;99.90;;;;;;5118150;23;20253;-92
2023/03/25 07:34:50;;;;;;;13.55;2.47;;;11.20;99.90;;;;;;5119426;23;20185;-92
2023/03/25 07:36:50;;;;;;;16.70;2.00;;;11.10;99.90;;;;;;5118349;23;20632;-92
2023/03/25 07:38:52;;;;;;;18.33;2.55;;;11.00;99.90;;;;;;5118252;23;20156;-92
2023/03/25 07:40:53;;;;;;;16.42;1.98;;;11.00;99.90;;;;;;5142929;23;20171;-91
2023/03/25 07:42:54;;;;;;;24.98;3.13;;;10.70;99.90;;;;;;5118638;23;20583;-92
2023/03/25 07:45:19;;;;;;;23.52;6.57;;;10.70;99.90;;;;;;5148104;23;20168;-94
2023/03/25 07:47:21;;;;;;;23.35;2.67;;;10.60;99.90;;;;;;5143434;23;20151;-92
2023/03/25 07:49:22;;;;;;;26.23;3.63;;;10.60;99.90;;;;;;5118278;23;20199;-90
2023/03/25 07:51:23;;;;;;;15.73;2.72;;;10.50;99.90;;;;;;5118473;23;20152;-91
2023/03/25 07:53:23;;;;;;;21.58;4.07;;;10.40;99.90;;;;;;5118392;23;20152;-92
2023/03/25 07:55:24;;;;;;;19.60;3.20;;;10.40;99.90;;;;;;5142965;23;20151;-93
2023/03/25 07:57:25;;;;;;;16.50;2.53;;;10.30;99.90;;;;;;5120374;23;20167;-92
2023/03/25 07:59:26;;;;;;;22.60;2.92;;;10.40;99.90;;;;;;5143178;23;20157;-92
2023/03/25 08:01:27;;;;;;;17.35;2.65;;;10.60;99.90;;;;;;5118568;23;20168;-92
2023/03/25 08:03:28;;;;;;;20.20;3.17;;;10.50;99.90;;;;;;5118267;23;20148;-93
2023/03/25 08:05:29;;;;;;;17.67;2.42;;;10.60;99.90;;;;;;5144060;23;20159;-91
2023/03/25 08:07:30;;;;;;;20.70;2.92;;;10.70;99.90;;;;;;5142964;23;20151;-91
2023/03/25 08:09:31;;;;;;;24.13;3.20;;;11.10;99.90;;;;;;5144024;23;20199;-92
2023/03/25 08:11:32;;;;;;;26.42;5.95;;;11.80;99.90;;;;;;5143826;23;20152;-94
2023/03/25 08:13:33;;;;;;;19.33;2.80;;;12.30;99.90;;;;;;5119525;23;20599;-94
2023/03/25 08:15:39;;;;;;;21.98;3.10;;;12.00;99.90;;;;;;5119924;23;20187;-94
2023/03/25 08:17:44;;;;;;;18.42;2.78;;;11.70;99.90;;;;;;5122871;23;20599;-94
2023/03/25 08:19:45;;;;;;;24.40;3.78;;;11.70;99.90;;;;;;5120507;23;20171;-94
2023/03/25 08:21:46;;;;;;;22.30;3.20;;;11.40;99.90;;;;;;5120396;23;20152;-95
2023/03/25 08:23:49;;;;;;;40.22;14.73;;;11.50;99.90;;;;;;5171184;23;20155;-95
2023/03/25 08:25:50;;;;;;;22.80;2.72;;;11.80;99.90;;;;;;5121072;23;20159;-94
2023/03/25 08:27:51;;;;;;;67.35;35.05;;;12.00;99.90;;;;;;5123385;23;20153;-94
2023/03/25 08:29:56;;;;;;;21.02;3.08;;;11.90;99.90;;;;;;5122038;23;20207;-93
2023/03/25 08:32:01;;;;;;;18.70;2.63;;;12.20;99.90;;;;;;5144215;23;20151;-96
2023/03/25 08:34:03;;;;;;;19.83;2.30;;;12.50;99.90;;;;;;5143411;23;20148;-95
2023/03/25 08:36:12;;;;;;;16.92;2.95;;;13.00;99.90;;;;;;5144066;23;20147;-96
2023/03/25 08:38:13;;;;;;;20.13;2.45;;;12.90;99.90;;;;;;5119186;23;20676;-94
2023/03/25 08:40:16;;;;;;;25.13;2.75;;;12.60;99.90;;;;;;5143185;23;20228;-94
2023/03/25 08:42:17;;;;;;;21.08;2.72;;;12.30;99.90;;;;;;5120005;23;20156;-94
2023/03/25 08:44:18;;;;;;;21.42;3.20;;;12.20;99.90;;;;;;5145145;23;20214;-93
2023/03/25 08:46:19;;;;;;;23.85;3.38;;;12.40;99.90;;;;;;5120949;23;20156;-94
2023/03/25 08:48:36;;;;;;;14.35;2.60;;;12.40;99.90;;;;;;5120589;23;20220;-95
2023/03/25 08:50:37;;;;;;;20.67;2.53;;;12.10;99.90;;;;;;5095040;23;20531;-94
2023/03/25 08:52:38;;;;;;;21.30;3.70;;;12.20;99.90;;;;;;5118687;23;20180;-94
2023/03/25 08:54:39;;;;;;;20.65;3.33;;;12.20;99.90;;;;;;5119766;23;20156;-92
2023/03/25 08:56:39;;;;;;;27.13;3.30;;;12.30;99.90;;;;;;5144801;23;20174;-94
2023/03/25 08:58:40;;;;;;;21.00;3.55;;;12.20;99.90;;;;;;5144554;23;20155;-95
2023/03/25 09:00:53;;;;;;;17.63;2.83;;;12.00;99.90;;;;;;5146251;23;20645;-93
2023/03/25 09:02:56;;;;;;;31.88;3.20;;;12.10;99.90;;;;;;5120326;23;20273;-94
2023/03/25 09:05:00;;;;;;;21.27;3.10;;;11.90;99.90;;;;;;5146438;23;20152;-95
2023/03/25 09:07:01;;;;;;;26.15;3.60;;;11.60;99.90;;;;;;5123164;23;20218;-94
2023/03/25 09:09:04;;;;;;;30.67;3.10;;;11.50;99.90;;;;;;5148360;23;20200;-94
2023/03/25 09:11:08;;;;;;;24.83;2.75;;;12.00;99.90;;;;;;5120638;23;20196;-96
2023/03/25 09:13:11;;;;;;;24.40;3.22;;;12.20;99.90;;;;;;5145632;23;20181;-94
2023/03/25 09:15:12;;;;;;;24.10;2.67;;;12.50;99.90;;;;;;5145119;23;20155;-95
2023/03/25 09:17:13;;;;;;;21.55;3.35;;;12.90;99.90;;;;;;5122366;23;20160;-94
2023/03/25 09:19:16;;;;;;;22.65;3.55;;;12.90;99.90;;;;;;5120649;23;20148;-94
2023/03/25 09:21:18;;;;;;;21.73;3.15;;;12.60;99.90;;;;;;5144982;23;20162;-95
2023/03/25 09:23:22;;;;;;;20.75;2.92;;;12.40;99.90;;;;;;5144459;23;20154;-93
2023/03/25 09:25:23;;;;;;;23.52;2.97;;;12.00;99.90;;;;;;5119768;23;20178;-94
2023/03/25 09:27:23;;;;;;;25.75;3.30;;;12.30;99.90;;;;;;5120260;23;20216;-93
2023/03/25 09:29:24;;;;;;;22.35;2.92;;;12.20;99.90;;;;;;5144240;23;20242;-93
2023/03/25 09:31:26;;;;;;;25.33;2.75;;;12.00;99.90;;;;;;5145138;23;20188;-93
2023/03/25 09:33:27;;;;;;;25.98;3.55;;;12.10;99.90;;;;;;5119968;23;20294;-94
2023/03/25 09:35:28;;;;;;;29.90;3.35;;;12.50;99.90;;;;;;5144405;23;20175;-93
2023/03/25 09:37:29;;;;;;;26.27;3.58;;;12.40;99.90;;;;;;5122292;23;20159;-95
2023/03/25 09:39:30;;;;;;;18.25;2.50;;;12.20;99.90;;;;;;5097007;23;20660;-92
2023/03/25 09:41:33;;;;;;;23.35;3.20;;;12.50;99.90;;;;;;5144332;23;20238;-93
2023/03/25 09:43:37;;;;;;;30.13;3.63;;;12.70;99.90;;;;;;5146686;23;20155;-96
2023/03/25 09:45:46;;;;;;;25.50;2.92;;;13.00;99.90;;;;;;5119919;23;20591;-95
2023/03/25 09:48:00;;;;;;;25.25;3.42;;;13.40;99.90;;;;;;5120496;23;20148;-95
2023/03/25 09:50:05;;;;;;;29.58;4.40;;;13.50;99.90;;;;;;5119682;23;20521;-93
2023/03/25 09:52:17;;;;;;;20.23;2.78;;;13.00;99.90;;;;;;5144725;23;20143;-94
2023/03/25 09:54:24;;;;;;;16.90;2.05;;;13.20;99.90;;;;;;5121365;23;20156;-93
2023/03/25 09:56:29;;;;;;;29.70;4.20;;;13.20;99.90;;;;;;5121675;23;20494;-95
2023/03/25 09:58:35;;;;;;;26.58;3.55;;;13.40;99.90;;;;;;5144715;23;20156;-94
2023/03/25 10:01:06;;;;;;;18.85;3.55;;;13.60;99.90;;;;;;5145931;23;20191;-95
2023/03/25 10:03:21;;;;;;;27.65;3.78;;;13.70;99.90;;;;;;5121012;23;20163;-94
2023/03/25 10:05:35;;;;;;;32.33;3.88;;;13.40;99.90;;;;;;5119831;23;20156;-94
2023/03/25 10:08:04;;;;;;;30.92;3.83;;;13.60;99.90;;;;;;5123760;23;20156;-95
2023/03/25 10:10:31;;;;;;;24.38;4.40;;;13.60;99.90;;;;;;5123266;23;20200;-94
2023/03/25 10:12:42;;;;;;;26.10;3.38;;;13.60;99.90;;;;;;5120236;23;20184;-93
2023/03/25 10:14:58;;;;;;;19.00;2.78;;;13.60;99.90;;;;;;5119276;23;20152;-94
2023/03/25 10:17:22;;;;;;;25.35;2.70;;;13.20;99.90;;;;;;5119835;23;20603;-95
2023/03/25 10:20:00;;;;;;;28.38;2.95;;;13.40;99.90;;;;;;5119755;23;20223;-94
2023/03/25 10:22:16;;;;;;;23.45;3.03;;;13.40;99.90;;;;;;5146161;23;20234;-94
2023/03/25 10:24:54;;;;;;;24.15;2.97;;;13.70;99.90;;;;;;5122041;23;20183;-95
2023/03/25 10:27:19;;;;;;;24.90;3.55;;;14.20;99.90;;;;;;5116385;23;20200;-95
2023/03/25 10:29:30;;;;;;;22.33;2.97;;;14.50;99.90;;;;;;5118613;23;20670;-95
2023/03/25 10:31:36;;;;;;;15.57;1.80;;;14.80;99.90;;;;;;5146085;23;20147;-93
2023/03/25 10:33:53;;;;;;;16.30;2.67;;;14.40;99.90;;;;;;5144971;23;20155;-94
2023/03/25 10:36:06;;;;;;;27.98;3.05;;;14.30;99.90;;;;;;5121706;23;20152;-94
2023/03/25 10:38:19;;;;;;;21.83;3.30;;;14.70;99.90;;;;;;5119910;23;20178;-93
2023/03/25 10:40:32;;;;;;;22.05;3.72;;;14.80;99.90;;;;;;5119458;23;20179;-94
2023/03/25 10:42:40;;;;;;;19.40;3.15;;;15.30;99.90;;;;;;5119600;23;20155;-94
2023/03/25 10:44:42;;;;;;;26.30;2.63;;;15.10;99.90;;;;;;5119190;23;20617;-94
2023/03/25 10:46:50;;;;;;;16.98;2.90;;;15.10;99.90;;;;;;5119381;23;20488;-93
2023/03/25 10:48:53;;;;;;;16.35;2.55;;;14.90;99.90;;;;;;5118891;23;20147;-93
2023/03/25 10:51:09;;;;;;;24.38;2.83;;;14.60;99.90;;;;;;5098232;23;20247;-94
2023/03/25 10:53:33;;;;;;;14.55;2.58;;;14.70;99.90;;;;;;5127997;23;20905;-94